sensor_id;sensor_type;location;lat;lon;timestamp;pressure;altitude;pressure_sealevel;temperature;humidity
68329;BME280;55182;56.864;60.554;2023-04-05T00:01:59;76144.84;;;-143.60;65.75
68329;BME280;55182;56.864;60.554;2023-04-05T00:04:25;76154.88;;;-143.60;66.73
68329;BME280;55182;56.864;60.554;2023-04-05T00:06:50;76154.88;;;-143.60;66.97
68329;BME280;55182;56.864;60.554;2023-04-05T00:09:17;76162.91;;;-143.60;66.63
68329;BME280;55182;56.864;60.554;2023-04-05T00:11:42;76164.94;;;-143.60;66.49
68329;BME280;55182;56.864;60.554;2023-04-05T00:14:08;76177.00;;;-143.60;66.58
68329;BME280;55182;56.864;60.554;2023-04-05T00:16:33;76179.00;;;-143.60;66.69
68329;BME280;55182;56.864;60.554;2023-04-05T00:18:59;76189.03;;;-143.60;67.05
68329;BME280;55182;56.864;60.554;2023-04-05T00:21:24;76185.03;;;-143.60;67.68
68329;BME280;55182;56.864;60.554;2023-04-05T00:23:51;76189.03;;;-143.60;68.19
68329;BME280;55182;56.864;60.554;2023-04-05T00:26:17;76191.06;;;-143.60;69.13
68329;BME280;55182;56.864;60.554;2023-04-05T00:28:46;76195.06;;;-143.60;69.49
68329;BME280;55182;56.864;60.554;2023-04-05T00:31:12;76195.06;;;-143.60;70.30
68329;BME280;55182;56.864;60.554;2023-04-05T00:33:38;76199.09;;;-143.60;70.24
68329;BME280;55182;56.864;60.554;2023-04-05T00:36:14;76207.13;;;-143.60;70.35
68329;BME280;55182;56.864;60.554;2023-04-05T00:38:40;76215.16;;;-143.60;70.82
68329;BME280;55182;56.864;60.554;2023-04-05T00:41:06;76223.22;;;-143.60;70.90
68329;BME280;55182;56.864;60.554;2023-04-05T00:43:32;76215.16;;;-143.60;71.45
68329;BME280;55182;56.864;60.554;2023-04-05T00:45:57;76223.22;;;-143.60;71.45
68329;BME280;55182;56.864;60.554;2023-04-05T00:48:23;76221.19;;;-143.60;72.02
68329;BME280;55182;56.864;60.554;2023-04-05T00:50:49;76231.25;;;-143.60;72.43
68329;BME280;55182;56.864;60.554;2023-04-05T00:53:15;76235.25;;;-143.60;72.47
68329;BME280;55182;56.864;60.554;2023-04-05T00:55:42;76235.25;;;-143.60;72.60
68329;BME280;55182;56.864;60.554;2023-04-05T00:58:08;76231.25;;;-143.60;72.31
68329;BME280;55182;56.864;60.554;2023-04-05T01:00:35;76229.25;;;-143.60;72.18
68329;BME280;55182;56.864;60.554;2023-04-05T01:03:02;76235.25;;;-143.60;72.19
68329;BME280;55182;56.864;60.554;2023-04-05T01:05:47;76243.31;;;-143.60;72.34
68329;BME280;55182;56.864;60.554;2023-04-05T01:08:28;76239.28;;;-143.60;72.37
68329;BME280;55182;56.864;60.554;2023-04-05T01:10:58;76231.25;;;-143.60;72.27
68329;BME280;55182;56.864;60.554;2023-04-05T01:13:24;76235.25;;;-143.60;73.46
68329;BME280;55182;56.864;60.554;2023-04-05T01:15:50;76235.25;;;-143.60;73.17
68329;BME280;55182;56.864;60.554;2023-04-05T01:18:16;76239.28;;;-143.60;73.62
68329;BME280;55182;56.864;60.554;2023-04-05T01:20:45;76245.31;;;-143.60;74.06
68329;BME280;55182;56.864;60.554;2023-04-05T01:26:08;76251.34;;;-143.60;74.66
68329;BME280;55182;56.864;60.554;2023-04-05T01:38:43;76259.38;;;-143.60;74.56
68329;BME280;55182;56.864;60.554;2023-04-05T01:41:10;76247.31;;;-143.60;73.74
68329;BME280;55182;56.864;60.554;2023-04-05T01:43:37;76239.28;;;-143.60;73.54
68329;BME280;55182;56.864;60.554;2023-04-05T01:46:02;76239.28;;;-143.60;73.73
68329;BME280;55182;56.864;60.554;2023-04-05T01:48:29;76237.28;;;-143.60;73.99
68329;BME280;55182;56.864;60.554;2023-04-05T01:50:55;76239.28;;;-143.60;74.09
68329;BME280;55182;56.864;60.554;2023-04-05T01:53:20;76227.22;;;-143.60;73.22
68329;BME280;55182;56.864;60.554;2023-04-05T01:55:46;76215.16;;;-143.60;73.17
68329;BME280;55182;56.864;60.554;2023-04-05T01:58:11;76215.16;;;-143.60;73.57
68329;BME280;55182;56.864;60.554;2023-04-05T02:00:37;76219.19;;;-143.60;73.37
68329;BME280;55182;56.864;60.554;2023-04-05T02:03:03;76211.16;;;-143.60;73.41
68329;BME280;55182;56.864;60.554;2023-04-05T02:05:28;76209.13;;;-143.60;73.12
68329;BME280;55182;56.864;60.554;2023-04-05T02:07:56;76207.13;;;-143.60;73.51
68329;BME280;55182;56.864;60.554;2023-04-05T02:10:22;76193.06;;;-143.60;73.05
68329;BME280;55182;56.864;60.554;2023-04-05T02:12:47;76185.03;;;-143.60;72.38
68329;BME280;55182;56.864;60.554;2023-04-05T02:15:13;76181.00;;;-143.60;72.08
68329;BME280;55182;56.864;60.554;2023-04-05T02:17:38;76170.97;;;-143.60;71.58
68329;BME280;55182;56.864;60.554;2023-04-05T02:20:07;76162.91;;;-143.60;71.68
68329;BME280;55182;56.864;60.554;2023-04-05T02:22:33;76158.91;;;-143.60;71.60
68329;BME280;55182;56.864;60.554;2023-04-05T02:24:59;76142.81;;;-143.60;71.27
68329;BME280;55182;56.864;60.554;2023-04-05T02:27:26;76140.81;;;-143.60;71.55
68329;BME280;55182;56.864;60.554;2023-04-05T02:29:52;76122.72;;;-143.60;71.58
68329;BME280;55182;56.864;60.554;2023-04-05T02:32:18;76114.69;;;-143.60;71.23
68329;BME280;55182;56.864;60.554;2023-04-05T02:34:44;76106.66;;;-143.60;71.34
68329;BME280;55182;56.864;60.554;2023-04-05T02:37:09;76092.59;;;-143.60;71.24
68329;BME280;55182;56.864;60.554;2023-04-05T02:39:35;76084.56;;;-143.60;71.05
68329;BME280;55182;56.864;60.554;2023-04-05T02:42:00;76074.50;;;-143.60;70.64
68329;BME280;55182;56.864;60.554;2023-04-05T02:44:26;76062.44;;;-143.60;70.68
68329;BME280;55182;56.864;60.554;2023-04-05T02:46:52;76046.38;;;-143.60;70.67
68329;BME280;55182;56.864;60.554;2023-04-05T02:49:23;76036.31;;;-143.60;70.16
68329;BME280;55182;56.864;60.554;2023-04-05T02:51:48;76018.25;;;-143.60;70.38
68329;BME280;55182;56.864;60.554;2023-04-05T02:54:14;76008.19;;;-143.60;70.24
68329;BME280;55182;56.864;60.554;2023-04-05T02:56:40;75990.09;;;-143.60;70.35
68329;BME280;55182;56.864;60.554;2023-04-05T02:59:11;75970.00;;;-143.60;70.57
68329;BME280;55182;56.864;60.554;2023-04-05T03:01:36;75945.91;;;-143.60;71.20
68329;BME280;55182;56.864;60.554;2023-04-05T03:04:02;75911.75;;;-143.60;71.34
68329;BME280;55182;56.864;60.554;2023-04-05T03:06:29;75889.63;;;-143.60;70.49
68329;BME280;55182;56.864;60.554;2023-04-05T03:08:55;75863.53;;;-143.60;70.23
68329;BME280;55182;56.864;60.554;2023-04-05T03:11:22;75837.41;;;-143.60;69.93
68329;BME280;55182;56.864;60.554;2023-04-05T03:13:52;75793.19;;;-143.60;69.06
68329;BME280;55182;56.864;60.554;2023-04-05T03:16:35;75751.00;;;-143.60;68.16
68329;BME280;55182;56.864;60.554;2023-04-05T03:19:08;75718.84;;;-143.60;67.29
68329;BME280;55182;56.864;60.554;2023-04-05T03:21:36;75700.75;;;-143.60;66.39
68329;BME280;55182;56.864;60.554;2023-04-05T03:24:09;75680.69;;;-143.60;65.59
68329;BME280;55182;56.864;60.554;2023-04-05T03:26:39;75660.59;;;-143.60;64.13
68329;BME280;55182;56.864;60.554;2023-04-05T03:29:05;75656.56;;;-143.60;64.75
68329;BME280;55182;56.864;60.554;2023-04-05T03:31:33;75648.53;;;-143.60;63.04
68329;BME280;55182;56.864;60.554;2023-04-05T03:34:03;75636.47;;;-143.60;63.96
68329;BME280;55182;56.864;60.554;2023-04-05T03:36:37;75616.38;;;-143.60;64.30
68329;BME280;55182;56.864;60.554;2023-04-05T03:39:03;75596.28;;;-143.60;63.57
68329;BME280;55182;56.864;60.554;2023-04-05T03:41:29;75576.19;;;-143.60;63.16
68329;BME280;55182;56.864;60.554;2023-04-05T03:43:55;75544.03;;;-143.60;62.53
68329;BME280;55182;56.864;60.554;2023-04-05T03:46:22;75529.97;;;-143.60;62.26
68329;BME280;55182;56.864;60.554;2023-04-05T03:48:47;75519.94;;;-143.60;61.93
68329;BME280;55182;56.864;60.554;2023-04-05T03:51:12;75519.94;;;-143.60;61.65
68329;BME280;55182;56.864;60.554;2023-04-05T03:53:38;75523.94;;;-143.60;61.77
68329;BME280;55182;56.864;60.554;2023-04-05T03:56:03;75519.94;;;-143.60;61.86
68329;BME280;55182;56.864;60.554;2023-04-05T03:58:42;75507.88;;;-143.60;61.71
68329;BME280;55182;56.864;60.554;2023-04-05T04:01:08;75499.84;;;-143.60;61.40
68329;BME280;55182;56.864;60.554;2023-04-05T04:03:34;75491.81;;;-143.60;61.49
68329;BME280;55182;56.864;60.554;2023-04-05T04:05:59;75487.78;;;-143.60;61.59
68329;BME280;55182;56.864;60.554;2023-04-05T04:08:27;75483.78;;;-143.60;61.40
68329;BME280;55182;56.864;60.554;2023-04-05T04:10:52;75481.75;;;-143.60;61.39
68329;BME280;55182;56.864;60.554;2023-04-05T04:13:22;75467.69;;;-143.60;61.49
68329;BME280;55182;56.864;60.554;2023-04-05T04:15:57;75459.66;;;-143.60;61.40
68329;BME280;55182;56.864;60.554;2023-04-05T04:18:32;75441.59;;;-143.60;60.79
68329;BME280;55182;56.864;60.554;2023-04-05T04:21:20;75419.47;;;-143.60;60.46
68329;BME280;55182;56.864;60.554;2023-04-05T04:24:08;75391.34;;;-143.60;59.77
68329;BME280;55182;56.864;60.554;2023-04-05T04:27:00;75367.25;;;-143.60;59.26
68329;BME280;55182;56.864;60.554;2023-04-05T04:29:49;75335.09;;;-143.60;58.57
68329;BME280;55182;56.864;60.554;2023-04-05T04:32:20;75315.00;;;-143.60;58.30
68329;BME280;55182;56.864;60.554;2023-04-05T04:34:58;75286.88;;;-143.60;57.70
68329;BME280;55182;56.864;60.554;2023-04-05T04:37:58;75264.78;;;-143.60;57.47
68329;BME280;55182;56.864;60.554;2023-04-05T04:40:39;75246.69;;;-143.60;57.24
68329;BME280;55182;56.864;60.554;2023-04-05T04:43:19;75230.63;;;-143.60;56.85
68329;BME280;55182;56.864;60.554;2023-04-05T04:46:10;75210.53;;;-143.60;56.21
68329;BME280;55182;56.864;60.554;2023-04-05T04:48:52;75188.44;;;-143.60;56.28
68329;BME280;55182;56.864;60.554;2023-04-05T04:51:32;75166.34;;;-143.60;55.54
68329;BME280;55182;56.864;60.554;2023-04-05T04:53:58;75146.25;;;-143.60;55.34
68329;BME280;55182;56.864;60.554;2023-04-05T04:56:23;75128.16;;;-143.60;54.83
68329;BME280;55182;56.864;60.554;2023-04-05T04:58:53;75108.06;;;-143.60;54.27
68329;BME280;55182;56.864;60.554;2023-04-05T05:01:19;75102.06;;;-143.60;53.81
68329;BME280;55182;56.864;60.554;2023-04-05T05:03:44;75085.97;;;-143.60;53.79
68329;BME280;55182;56.864;60.554;2023-04-05T05:06:09;75073.94;;;-143.60;53.23
68329;BME280;55182;56.864;60.554;2023-04-05T05:08:35;75047.81;;;-143.60;52.69
68329;BME280;55182;56.864;60.554;2023-04-05T05:11:00;75029.72;;;-143.60;52.66
68329;BME280;55182;56.864;60.554;2023-04-05T05:13:26;75013.66;;;-143.60;52.10
68329;BME280;55182;56.864;60.554;2023-04-05T05:15:51;74993.56;;;-143.60;50.90
68329;BME280;55182;56.864;60.554;2023-04-05T05:18:17;74977.50;;;-143.60;50.48
68329;BME280;55182;56.864;60.554;2023-04-05T05:20:42;74949.38;;;-143.60;50.08
68329;BME280;55182;56.864;60.554;2023-04-05T05:23:08;74937.31;;;-143.60;49.92
68329;BME280;55182;56.864;60.554;2023-04-05T05:25:33;74927.28;;;-143.60;49.86
68329;BME280;55182;56.864;60.554;2023-04-05T05:27:58;74901.16;;;-143.60;49.29
68329;BME280;55182;56.864;60.554;2023-04-05T05:30:26;74891.13;;;-143.60;48.67
68329;BME280;55182;56.864;60.554;2023-04-05T05:32:51;74881.06;;;-143.60;48.50
68329;BME280;55182;56.864;60.554;2023-04-05T05:35:17;74873.03;;;-143.60;48.37
68329;BME280;55182;56.864;60.554;2023-04-05T05:37:42;74863.00;;;-143.60;48.39
68329;BME280;55182;56.864;60.554;2023-04-05T05:40:08;74850.94;;;-143.60;47.87
68329;BME280;55182;56.864;60.554;2023-04-05T05:42:34;74832.88;;;-143.60;48.17
68329;BME280;55182;56.864;60.554;2023-04-05T05:45:01;74822.81;;;-143.60;47.43
68329;BME280;55182;56.864;60.554;2023-04-05T05:47:27;74796.69;;;-143.60;46.68
68329;BME280;55182;56.864;60.554;2023-04-05T05:49:52;74754.50;;;-143.60;45.78
68329;BME280;55182;56.864;60.554;2023-04-05T05:52:18;74728.41;;;-143.60;45.15
68329;BME280;55182;56.864;60.554;2023-04-05T05:54:43;74702.28;;;-143.60;44.16
68329;BME280;55182;56.864;60.554;2023-04-05T05:57:08;74680.19;;;-143.60;44.34
68329;BME280;55182;56.864;60.554;2023-04-05T05:59:34;74662.13;;;-143.60;43.73
68329;BME280;55182;56.864;60.554;2023-04-05T06:01:59;74634.00;;;-143.60;43.19
68329;BME280;55182;56.864;60.554;2023-04-05T06:04:25;74611.91;;;-143.60;43.35
68329;BME280;55182;56.864;60.554;2023-04-05T06:06:50;74599.84;;;-143.60;42.15
68329;BME280;55182;56.864;60.554;2023-04-05T06:09:16;74583.78;;;-143.60;42.28
68329;BME280;55182;56.864;60.554;2023-04-05T06:11:42;74571.72;;;-143.60;42.52
68329;BME280;55182;56.864;60.554;2023-04-05T06:14:08;74559.66;;;-143.60;41.92
68329;BME280;55182;56.864;60.554;2023-04-05T06:16:33;74549.63;;;-143.60;41.22
68329;BME280;55182;56.864;60.554;2023-04-05T06:18:59;74527.53;;;-143.60;40.71
68329;BME280;55182;56.864;60.554;2023-04-05T06:21:24;74503.44;;;-143.60;40.38
68329;BME280;55182;56.864;60.554;2023-04-05T06:23:50;74475.31;;;-143.60;38.94
68329;BME280;55182;56.864;60.554;2023-04-05T06:26:22;74463.25;;;-143.60;39.17
68329;BME280;55182;56.864;60.554;2023-04-05T06:28:48;74443.16;;;-143.60;39.25
68329;BME280;55182;56.864;60.554;2023-04-05T06:31:14;74423.09;;;-143.60;39.19
68329;BME280;55182;56.864;60.554;2023-04-05T06:33:40;74407.00;;;-143.60;38.85
68329;BME280;55182;56.864;60.554;2023-04-05T06:36:05;74388.94;;;-143.60;38.64
68329;BME280;55182;56.864;60.554;2023-04-05T06:38:31;74372.88;;;-143.60;38.12
68329;BME280;55182;56.864;60.554;2023-04-05T06:40:56;74354.78;;;-143.60;38.07
68329;BME280;55182;56.864;60.554;2023-04-05T06:43:22;74336.72;;;-143.60;37.35
68329;BME280;55182;56.864;60.554;2023-04-05T06:45:47;74314.63;;;-143.60;37.33
68329;BME280;55182;56.864;60.554;2023-04-05T06:48:12;74308.59;;;-143.60;37.36
68329;BME280;55182;56.864;60.554;2023-04-05T06:50:38;74282.47;;;-143.60;35.47
68329;BME280;55182;56.864;60.554;2023-04-05T06:53:03;74266.41;;;-143.60;34.02
68329;BME280;55182;56.864;60.554;2023-04-05T06:55:29;74238.28;;;-143.60;33.76
68329;BME280;55182;56.864;60.554;2023-04-05T06:57:54;74200.13;;;-143.60;31.99
68329;BME280;55182;56.864;60.554;2023-04-05T07:00:20;74170.00;;;-143.60;31.49
68329;BME280;55182;56.864;60.554;2023-04-05T07:02:45;74145.91;;;-143.60;30.87
68329;BME280;55182;56.864;60.554;2023-04-05T07:05:10;74129.84;;;-143.60;31.50
68329;BME280;55182;56.864;60.554;2023-04-05T07:07:39;74117.78;;;-143.60;30.92
68329;BME280;55182;56.864;60.554;2023-04-05T07:10:05;74099.72;;;-143.60;31.26
68329;BME280;55182;56.864;60.554;2023-04-05T07:12:31;74081.63;;;-143.60;30.65
68329;BME280;55182;56.864;60.554;2023-04-05T07:14:57;74069.59;;;-143.60;30.25
68329;BME280;55182;56.864;60.554;2023-04-05T07:17:23;74059.53;;;-143.60;30.38
68329;BME280;55182;56.864;60.554;2023-04-05T07:19:48;74033.44;;;-143.60;29.55
68329;BME280;55182;56.864;60.554;2023-04-05T07:22:14;74005.31;;;-143.60;29.52
68329;BME280;55182;56.864;60.554;2023-04-05T07:24:39;73993.25;;;-143.60;29.46
68329;BME280;55182;56.864;60.554;2023-04-05T07:27:05;73981.22;;;-143.60;29.52
68329;BME280;55182;56.864;60.554;2023-04-05T07:29:30;73955.09;;;-143.60;28.96
68329;BME280;55182;56.864;60.554;2023-04-05T07:31:55;73945.06;;;-143.60;28.88
68329;BME280;55182;56.864;60.554;2023-04-05T07:34:21;73933.00;;;-143.60;28.98
68329;BME280;55182;56.864;60.554;2023-04-05T07:36:46;73926.97;;;-143.60;28.70
68329;BME280;55182;56.864;60.554;2023-04-05T07:39:12;73906.91;;;-143.60;28.10
68329;BME280;55182;56.864;60.554;2023-04-05T07:41:37;73890.84;;;-143.60;28.00
68329;BME280;55182;56.864;60.554;2023-04-05T07:44:03;73880.78;;;-143.60;27.74
68329;BME280;55182;56.864;60.554;2023-04-05T07:46:28;73866.72;;;-143.60;27.61
68329;BME280;55182;56.864;60.554;2023-04-05T07:48:54;73844.66;;;-143.60;27.88
68329;BME280;55182;56.864;60.554;2023-04-05T07:51:19;73824.56;;;-143.60;27.07
68329;BME280;55182;56.864;60.554;2023-04-05T07:53:45;73810.50;;;-143.60;26.82
68329;BME280;55182;56.864;60.554;2023-04-05T07:56:10;73804.47;;;-143.60;26.86
68329;BME280;55182;56.864;60.554;2023-04-05T07:58:36;73788.41;;;-143.60;26.53
68329;BME280;55182;56.864;60.554;2023-04-05T08:01:02;73778.38;;;-143.60;26.07
68329;BME280;55182;56.864;60.554;2023-04-05T08:03:28;73768.31;;;-143.60;25.93
68329;BME280;55182;56.864;60.554;2023-04-05T08:05:54;73752.25;;;-143.60;26.03
68329;BME280;55182;56.864;60.554;2023-04-05T08:08:20;73742.22;;;-143.60;25.34
68329;BME280;55182;56.864;60.554;2023-04-05T08:10:46;73726.16;;;-143.60;25.08
68329;BME280;55182;56.864;60.554;2023-04-05T08:13:11;73714.09;;;-143.60;25.03
68329;BME280;55182;56.864;60.554;2023-04-05T08:15:38;73712.09;;;-143.60;24.42
68329;BME280;55182;56.864;60.554;2023-04-05T08:18:04;73706.06;;;-143.60;24.58
68329;BME280;55182;56.864;60.554;2023-04-05T08:20:29;73700.03;;;-143.60;24.24
68329;BME280;55182;56.864;60.554;2023-04-05T08:22:55;73692.00;;;-143.60;24.31
68329;BME280;55182;56.864;60.554;2023-04-05T08:25:20;73671.94;;;-143.60;23.30
68329;BME280;55182;56.864;60.554;2023-04-05T08:27:46;73639.78;;;-143.60;22.61
68329;BME280;55182;56.864;60.554;2023-04-05T08:30:12;73627.75;;;-143.60;22.76
68329;BME280;55182;56.864;60.554;2023-04-05T08:32:37;73615.69;;;-143.60;22.37
68329;BME280;55182;56.864;60.554;2023-04-05T08:35:03;73609.69;;;-143.60;22.14
68329;BME280;55182;56.864;60.554;2023-04-05T08:37:28;73591.59;;;-143.60;21.61
68329;BME280;55182;56.864;60.554;2023-04-05T08:39:57;73575.53;;;-143.60;21.54
68329;BME280;55182;56.864;60.554;2023-04-05T08:42:28;73555.44;;;-143.60;21.44
68329;BME280;55182;56.864;60.554;2023-04-05T08:44:53;73559.47;;;-143.60;21.49
68329;BME280;55182;56.864;60.554;2023-04-05T08:47:22;73551.44;;;-143.60;22.15
68329;BME280;55182;56.864;60.554;2023-04-05T08:49:47;73541.41;;;-143.60;21.24
68329;BME280;55182;56.864;60.554;2023-04-05T08:52:13;73521.31;;;-143.60;20.64
68329;BME280;55182;56.864;60.554;2023-04-05T08:54:38;73493.19;;;-143.60;20.76
68329;BME280;55182;56.864;60.554;2023-04-05T08:57:04;73467.09;;;-143.60;20.67
68329;BME280;55182;56.864;60.554;2023-04-05T08:59:31;73457.06;;;-143.60;19.94
68329;BME280;55182;56.864;60.554;2023-04-05T09:01:57;73451.03;;;-143.60;19.67
68329;BME280;55182;56.864;60.554;2023-04-05T09:04:23;73443.00;;;-143.60;19.64
68329;BME280;55182;56.864;60.554;2023-04-05T09:06:51;73443.00;;;-143.60;19.79
68329;BME280;55182;56.864;60.554;2023-04-05T09:09:16;73432.94;;;-143.60;19.73
68329;BME280;55182;56.864;60.554;2023-04-05T09:11:43;73414.88;;;-143.60;20.02
68329;BME280;55182;56.864;60.554;2023-04-05T09:14:08;73406.84;;;-143.60;19.75
68329;BME280;55182;56.864;60.554;2023-04-05T09:16:38;73398.81;;;-143.60;19.55
68329;BME280;55182;56.864;60.554;2023-04-05T09:19:04;73394.81;;;-143.60;19.85
68329;BME280;55182;56.864;60.554;2023-04-05T09:21:56;73378.75;;;-143.60;19.54
68329;BME280;55182;56.864;60.554;2023-04-05T09:24:26;73370.69;;;-143.60;20.03
68329;BME280;55182;56.864;60.554;2023-04-05T09:27:02;73354.63;;;-143.60;19.76
68329;BME280;55182;56.864;60.554;2023-04-05T09:29:28;73344.59;;;-143.60;19.78
68329;BME280;55182;56.864;60.554;2023-04-05T09:31:53;73332.56;;;-143.60;19.76
68329;BME280;55182;56.864;60.554;2023-04-05T09:34:19;73318.50;;;-143.60;19.58
68329;BME280;55182;56.864;60.554;2023-04-05T09:36:45;73306.44;;;-143.60;19.92
68329;BME280;55182;56.864;60.554;2023-04-05T09:39:10;73286.38;;;-143.60;19.84
68329;BME280;55182;56.864;60.554;2023-04-05T09:41:36;73262.28;;;-143.60;19.29
68329;BME280;55182;56.864;60.554;2023-04-05T09:44:01;73250.22;;;-143.60;19.41
68329;BME280;55182;56.864;60.554;2023-04-05T09:46:28;73238.16;;;-143.60;19.87
68329;BME280;55182;56.864;60.554;2023-04-05T09:48:53;73220.09;;;-143.60;19.98
68329;BME280;55182;56.864;60.554;2023-04-05T09:51:19;73200.03;;;-143.60;19.90
68329;BME280;55182;56.864;60.554;2023-04-05T09:53:57;73194.00;;;-143.60;19.80
68329;BME280;55182;56.864;60.554;2023-04-05T09:56:23;73177.94;;;-143.60;19.67
68329;BME280;55182;56.864;60.554;2023-04-05T09:58:51;73196.00;;;-143.60;19.71
68329;BME280;55182;56.864;60.554;2023-04-05T10:01:18;73210.06;;;-143.60;19.45
68329;BME280;55182;56.864;60.554;2023-04-05T10:03:47;73238.16;;;-143.60;19.36
68329;BME280;55182;56.864;60.554;2023-04-05T10:06:13;73256.25;;;-143.60;19.45
68329;BME280;55182;56.864;60.554;2023-04-05T10:08:38;73262.28;;;-143.60;19.35
68329;BME280;55182;56.864;60.554;2023-04-05T10:11:04;73276.31;;;-143.60;19.37
68329;BME280;55182;56.864;60.554;2023-04-05T10:13:30;73286.38;;;-143.60;19.39
68329;BME280;55182;56.864;60.554;2023-04-05T10:15:55;73298.41;;;-143.60;19.59
68329;BME280;55182;56.864;60.554;2023-04-05T10:18:23;73294.41;;;-143.60;19.67
68329;BME280;55182;56.864;60.554;2023-04-05T10:20:53;73302.44;;;-143.60;19.50
68329;BME280;55182;56.864;60.554;2023-04-05T10:23:26;73302.44;;;-143.60;19.40
68329;BME280;55182;56.864;60.554;2023-04-05T10:28:30;73318.50;;;-143.60;19.69
68329;BME280;55182;56.864;60.554;2023-04-05T10:33:34;73322.50;;;-143.60;18.64
68329;BME280;55182;56.864;60.554;2023-04-05T10:38:29;73290.38;;;-143.60;18.32
68329;BME280;55182;56.864;60.554;2023-04-05T10:41:04;73286.38;;;-143.60;18.26
68329;BME280;55182;56.864;60.554;2023-04-05T10:43:30;73290.38;;;-143.60;18.37
68329;BME280;55182;56.864;60.554;2023-04-05T10:45:56;73298.41;;;-143.60;18.54
68329;BME280;55182;56.864;60.554;2023-04-05T10:48:33;73298.41;;;-143.60;18.82
68329;BME280;55182;56.864;60.554;2023-04-05T10:51:01;73286.38;;;-143.60;18.66
68329;BME280;55182;56.864;60.554;2023-04-05T10:53:27;73270.31;;;-143.60;18.84
68329;BME280;55182;56.864;60.554;2023-04-05T10:55:54;73262.28;;;-143.60;18.62
68329;BME280;55182;56.864;60.554;2023-04-05T10:58:19;73262.28;;;-143.60;18.47
68329;BME280;55182;56.864;60.554;2023-04-05T11:00:46;73254.25;;;-143.60;18.60
68329;BME280;55182;56.864;60.554;2023-04-05T11:06:16;73254.25;;;-143.60;18.63
68329;BME280;55182;56.864;60.554;2023-04-05T11:08:42;73242.19;;;-143.60;19.17
68329;BME280;55182;56.864;60.554;2023-04-05T11:11:08;73244.19;;;-143.60;18.76
68329;BME280;55182;56.864;60.554;2023-04-05T11:13:49;73244.19;;;-143.60;18.73
68329;BME280;55182;56.864;60.554;2023-04-05T11:16:15;73246.22;;;-143.60;18.69
68329;BME280;55182;56.864;60.554;2023-04-05T11:18:44;73240.19;;;-143.60;18.78
68329;BME280;55182;56.864;60.554;2023-04-05T11:21:10;73232.16;;;-143.60;18.46
68329;BME280;55182;56.864;60.554;2023-04-05T11:26:20;73226.13;;;-143.60;18.32
68329;BME280;55182;56.864;60.554;2023-04-05T11:28:45;73228.13;;;-143.60;18.37
68329;BME280;55182;56.864;60.554;2023-04-05T11:31:18;73234.16;;;-143.60;18.30
68329;BME280;55182;56.864;60.554;2023-04-05T11:36:09;73228.13;;;-143.60;18.54
68329;BME280;55182;56.864;60.554;2023-04-05T11:38:35;73228.13;;;-143.60;18.37
68329;BME280;55182;56.864;60.554;2023-04-05T11:41:16;73220.09;;;-143.60;18.32
68329;BME280;55182;56.864;60.554;2023-04-05T11:43:45;73214.06;;;-143.60;18.64
68329;BME280;55182;56.864;60.554;2023-04-05T11:46:11;73210.06;;;-143.60;18.39
68329;BME280;55182;56.864;60.554;2023-04-05T11:48:37;73216.09;;;-143.60;18.28
68329;BME280;55182;56.864;60.554;2023-04-05T11:51:08;73210.06;;;-143.60;17.92
68329;BME280;55182;56.864;60.554;2023-04-05T11:53:53;73204.03;;;-143.60;18.06
68329;BME280;55182;56.864;60.554;2023-04-05T11:56:18;73210.06;;;-143.60;17.93
68329;BME280;55182;56.864;60.554;2023-04-05T11:58:44;73206.03;;;-143.60;18.04
68329;BME280;55182;56.864;60.554;2023-04-05T12:01:09;73198.00;;;-143.60;17.93
68329;BME280;55182;56.864;60.554;2023-04-05T12:03:35;73198.00;;;-143.60;18.05
68329;BME280;55182;56.864;60.554;2023-04-05T12:06:01;73185.97;;;-143.60;18.47
68329;BME280;55182;56.864;60.554;2023-04-05T12:08:40;73173.91;;;-143.60;18.18
68329;BME280;55182;56.864;60.554;2023-04-05T12:11:07;73155.84;;;-143.60;18.20
68329;BME280;55182;56.864;60.554;2023-04-05T12:13:33;73085.56;;;-143.60;17.69
68329;BME280;55182;56.864;60.554;2023-04-05T12:15:59;72941.00;;;-143.60;17.43
68329;BME280;55182;56.864;60.554;2023-04-05T12:18:25;72806.47;;;-143.60;17.22
68329;BME280;55182;56.864;60.554;2023-04-05T12:20:52;72688.00;;;-143.60;17.07
68329;BME280;55182;56.864;60.554;2023-04-05T12:23:17;72597.66;;;-143.60;16.89
68329;BME280;55182;56.864;60.554;2023-04-05T12:25:46;72515.34;;;-143.60;16.68
68329;BME280;55182;56.864;60.554;2023-04-05T12:28:12;72447.09;;;-143.60;16.63
68329;BME280;55182;56.864;60.554;2023-04-05T12:30:50;72410.94;;;-143.60;16.38
68329;BME280;55182;56.864;60.554;2023-04-05T12:33:25;72368.78;;;-143.60;16.01
68329;BME280;55182;56.864;60.554;2023-04-05T12:35:51;72332.66;;;-143.60;16.28
68329;BME280;55182;56.864;60.554;2023-04-05T12:38:17;72298.53;;;-143.60;16.32
68329;BME280;55182;56.864;60.554;2023-04-05T12:40:42;72282.47;;;-143.60;16.18
68329;BME280;55182;56.864;60.554;2023-04-05T12:43:08;72264.41;;;-143.60;16.13
68329;BME280;55182;56.864;60.554;2023-04-05T12:45:33;72274.44;;;-143.60;15.95
68329;BME280;55182;56.864;60.554;2023-04-05T12:47:59;72268.41;;;-143.60;15.99
68329;BME280;55182;56.864;60.554;2023-04-05T12:50:26;72274.44;;;-143.60;16.32
68329;BME280;55182;56.864;60.554;2023-04-05T12:52:52;72314.59;;;-143.60;16.43
68329;BME280;55182;56.864;60.554;2023-04-05T12:55:17;72334.66;;;-143.60;16.61
68329;BME280;55182;56.864;60.554;2023-04-05T12:57:43;72330.66;;;-143.60;16.58
68329;BME280;55182;56.864;60.554;2023-04-05T13:00:08;72312.59;;;-143.60;16.58
68329;BME280;55182;56.864;60.554;2023-04-05T13:02:53;72302.53;;;-143.60;16.72